createdAt,value
2018-10-06T00:01:05.342Z,7.20
2018-10-06T00:03:34.029Z,7.20
2018-10-06T00:06:02.700Z,7.10
2018-10-06T00:08:31.506Z,7.10
2018-10-06T00:11:00.130Z,7.10
2018-10-06T00:13:28.734Z,7.10
2018-10-06T00:15:57.410Z,7.00
2018-10-06T00:18:26.075Z,7.00
2018-10-06T00:20:59.912Z,6.90
2018-10-06T00:23:28.543Z,6.90
2018-10-06T00:25:57.195Z,6.90
2018-10-06T00:28:25.829Z,6.90
2018-10-06T00:30:54.446Z,6.90
2018-10-06T00:33:23.123Z,6.90
2018-10-06T00:35:51.739Z,6.80
2018-10-06T00:38:20.446Z,6.80
2018-10-06T00:40:49.065Z,6.70
2018-10-06T00:43:17.698Z,6.70
2018-10-06T00:45:46.459Z,6.70
2018-10-06T00:48:15.192Z,6.70
2018-10-06T00:50:43.836Z,6.70
2018-10-06T00:53:12.520Z,6.60
2018-10-06T00:55:41.122Z,6.60
2018-10-06T00:58:09.766Z,6.60
2018-10-06T01:00:38.397Z,6.60
2018-10-06T01:03:07.090Z,6.60
2018-10-06T01:05:35.694Z,6.60
2018-10-06T01:08:04.345Z,6.50
2018-10-06T01:10:32.993Z,6.60
2018-10-06T01:13:01.670Z,6.50
2018-10-06T01:15:30.343Z,6.50
2018-10-06T01:17:59.444Z,6.50
2018-10-06T01:20:28.562Z,6.50
2018-10-06T01:22:57.714Z,6.50
2018-10-06T01:25:27.754Z,6.50
2018-10-06T01:27:57.547Z,6.50
2018-10-06T01:30:26.177Z,6.50
2018-10-06T01:32:54.842Z,6.50
2018-10-06T01:35:23.481Z,6.50
2018-10-06T01:37:52.137Z,6.50
2018-10-06T01:40:20.984Z,6.40
2018-10-06T01:42:49.600Z,6.40
2018-10-06T01:45:18.268Z,6.40
2018-10-06T01:47:46.945Z,6.50
2018-10-06T01:50:15.641Z,6.50
2018-10-06T01:52:44.322Z,6.50
2018-10-06T01:55:12.946Z,6.60
2018-10-06T01:57:41.610Z,6.60
2018-10-06T02:00:10.241Z,6.60
2018-10-06T02:02:38.895Z,6.60
2018-10-06T02:05:07.657Z,6.60
2018-10-06T02:07:36.277Z,6.60
2018-10-06T02:10:04.937Z,6.60
2018-10-06T02:12:33.643Z,6.60
2018-10-06T02:15:02.265Z,6.60
2018-10-06T02:17:30.880Z,6.70
2018-10-06T02:19:59.531Z,6.70
2018-10-06T02:22:28.149Z,6.70
2018-10-06T02:25:03.282Z,6.70
2018-10-06T02:27:31.881Z,6.60
2018-10-06T02:30:00.530Z,6.60
2018-10-06T02:32:29.636Z,6.60
2018-10-06T02:34:58.485Z,6.60
2018-10-06T02:37:27.304Z,6.60
2018-10-06T02:39:55.982Z,6.60
2018-10-06T02:42:24.754Z,6.50
2018-10-06T02:44:53.421Z,6.50
2018-10-06T02:47:22.043Z,6.50
2018-10-06T02:49:50.898Z,6.50
2018-10-06T02:52:19.543Z,6.50
2018-10-06T02:54:48.168Z,6.50
2018-10-06T02:57:16.822Z,6.50
2018-10-06T02:59:45.481Z,6.50
2018-10-06T03:02:14.092Z,6.50
2018-10-06T03:04:42.742Z,6.50
2018-10-06T03:07:11.361Z,6.50
2018-10-06T03:09:40.102Z,6.50
2018-10-06T03:12:08.713Z,6.50
2018-10-06T03:14:37.357Z,6.50
2018-10-06T03:17:06.185Z,6.50
2018-10-06T03:19:34.822Z,6.50
2018-10-06T03:22:04.138Z,6.50
2018-10-06T03:24:32.783Z,6.50
2018-10-06T03:27:01.418Z,6.50
2018-10-06T03:29:30.086Z,6.50
2018-10-06T03:31:58.708Z,6.50
2018-10-06T03:34:27.458Z,6.50
2018-10-06T03:36:56.073Z,6.60
2018-10-06T03:39:24.730Z,6.60
2018-10-06T03:41:53.381Z,6.70
2018-10-06T03:44:22.068Z,6.70
2018-10-06T03:46:50.709Z,6.70
2018-10-06T03:49:19.361Z,6.80
2018-10-06T03:51:48.554Z,6.80
2018-10-06T03:54:17.216Z,6.80
2018-10-06T03:56:45.872Z,6.70
2018-10-06T03:59:14.778Z,6.70
2018-10-06T04:01:43.513Z,6.80
2018-10-06T04:04:12.237Z,6.80
2018-10-06T04:06:40.909Z,6.80
2018-10-06T04:09:09.672Z,6.80
2018-10-06T04:11:38.429Z,6.80
2018-10-06T04:14:07.666Z,6.90
2018-10-06T04:16:36.289Z,6.90
2018-10-06T04:19:11.397Z,6.80
2018-10-06T04:21:46.581Z,6.80
2018-10-06T04:24:18.395Z,6.80
2018-10-06T04:26:47.085Z,6.70
2018-10-06T04:29:15.953Z,6.80
2018-10-06T04:31:44.729Z,6.80
2018-10-06T04:34:13.373Z,6.70
2018-10-06T04:36:42.056Z,6.70
2018-10-06T04:39:12.487Z,6.70
2018-10-06T04:41:41.183Z,6.70
2018-10-06T04:44:10.294Z,6.70
2018-10-06T04:46:39.408Z,6.70
2018-10-06T04:49:08.182Z,6.70
2018-10-06T04:51:36.813Z,6.70
2018-10-06T04:54:05.458Z,6.70
2018-10-06T04:56:34.085Z,6.60
2018-10-06T04:59:03.906Z,6.60
2018-10-06T05:01:32.561Z,6.60
2018-10-06T05:04:01.297Z,6.50
2018-10-06T05:06:30.041Z,6.50
2018-10-06T05:08:58.889Z,6.50
2018-10-06T05:11:27.591Z,6.50
2018-10-06T05:13:56.334Z,6.50
2018-10-06T05:16:24.998Z,6.50
2018-10-06T05:18:53.689Z,6.50
2018-10-06T05:21:22.401Z,6.50
2018-10-06T05:23:51.073Z,6.50
2018-10-06T05:26:19.718Z,6.50
2018-10-06T05:28:48.426Z,6.50
2018-10-06T05:31:17.148Z,6.50
2018-10-06T05:33:45.842Z,6.50
2018-10-06T05:36:14.472Z,6.50
2018-10-06T05:38:43.363Z,6.50
2018-10-06T05:41:12.075Z,6.50
2018-10-06T05:43:40.749Z,6.50
2018-10-06T05:46:09.565Z,6.50
2018-10-06T05:48:38.216Z,6.50
2018-10-06T05:51:07.035Z,6.60
2018-10-06T05:53:35.735Z,6.60
2018-10-06T05:56:04.406Z,6.70
2018-10-06T05:58:33.216Z,6.70
2018-10-06T06:01:02.088Z,6.80
2018-10-06T06:03:30.768Z,6.80
2018-10-06T06:05:59.442Z,6.90
2018-10-06T06:08:28.145Z,7.00
2018-10-06T06:10:57.102Z,7.00
2018-10-06T06:13:25.737Z,7.10
2018-10-06T06:15:54.380Z,7.10
2018-10-06T06:18:23.055Z,7.20
2018-10-06T06:20:51.701Z,7.30
2018-10-06T06:23:20.441Z,7.30
2018-10-06T06:25:49.081Z,7.40
2018-10-06T06:28:17.873Z,7.50
2018-10-06T06:30:46.560Z,7.60
2018-10-06T06:33:15.199Z,7.70
2018-10-06T06:35:44.166Z,7.80
2018-10-06T06:38:12.860Z,7.90
2018-10-06T06:40:41.497Z,7.90
2018-10-06T06:43:10.220Z,8.00
2018-10-06T06:45:38.865Z,8.10
2018-10-06T06:48:07.769Z,8.20
2018-10-06T06:50:36.446Z,8.20
2018-10-06T06:53:06.128Z,8.40
2018-10-06T06:55:34.818Z,8.50
2018-10-06T06:58:03.473Z,8.70
2018-10-06T07:00:32.171Z,8.90
2018-10-06T07:03:00.829Z,9.00
2018-10-06T07:05:29.493Z,9.10
2018-10-06T07:07:58.154Z,9.30
2018-10-06T07:10:26.879Z,9.40
2018-10-06T07:12:55.686Z,9.70
2018-10-06T07:15:24.354Z,10.00
2018-10-06T07:17:53.026Z,10.10
2018-10-06T07:20:21.723Z,10.40
2018-10-06T07:22:50.701Z,10.60
2018-10-06T07:25:19.363Z,10.70
2018-10-06T07:27:48.018Z,10.90
2018-10-06T07:30:16.674Z,11.10
2018-10-06T07:32:45.310Z,11.40
2018-10-06T07:35:13.981Z,11.50
2018-10-06T07:37:42.686Z,11.60
2018-10-06T07:40:11.310Z,11.70
2018-10-06T07:42:39.938Z,11.80
2018-10-06T07:45:08.618Z,11.80
2018-10-06T07:47:37.263Z,12.00
2018-10-06T07:50:06.149Z,12.10
2018-10-06T07:52:34.783Z,12.20
2018-10-06T07:55:04.206Z,12.40
2018-10-06T07:57:32.841Z,12.60
2018-10-06T08:00:01.484Z,12.80
2018-10-06T08:02:30.185Z,13.00
2018-10-06T08:04:58.959Z,13.20
2018-10-06T08:07:27.585Z,13.40
2018-10-06T08:09:56.258Z,13.60
2018-10-06T08:12:24.914Z,13.70
2018-10-06T08:14:53.666Z,13.80
2018-10-06T08:17:22.310Z,13.90
2018-10-06T08:19:50.937Z,14.00
2018-10-06T08:22:19.594Z,14.10
2018-10-06T08:24:48.219Z,14.30
2018-10-06T08:27:16.871Z,14.40
2018-10-06T08:29:45.497Z,14.50
2018-10-06T08:32:14.118Z,14.60
2018-10-06T08:34:42.764Z,14.70
2018-10-06T08:37:11.433Z,14.80
2018-10-06T08:39:40.100Z,14.90
2018-10-06T08:42:08.765Z,15.10
2018-10-06T08:44:37.722Z,15.10
2018-10-06T08:47:06.390Z,15.20
2018-10-06T08:49:35.033Z,15.40
2018-10-06T08:52:03.749Z,15.40
2018-10-06T08:54:32.383Z,15.40
2018-10-06T08:57:01.049Z,15.40
2018-10-06T08:59:29.685Z,15.60
2018-10-06T09:01:58.447Z,15.50
2018-10-06T09:04:27.199Z,15.50
2018-10-06T09:06:55.779Z,15.60
2018-10-06T09:09:24.456Z,15.60
2018-10-06T09:11:53.115Z,15.80
2018-10-06T09:14:21.726Z,16.00
2018-10-06T09:16:50.449Z,16.20
2018-10-06T09:19:19.086Z,16.30
2018-10-06T09:21:47.717Z,16.60
2018-10-06T09:24:16.366Z,16.80
2018-10-06T09:26:45.026Z,16.90
2018-10-06T09:29:13.929Z,17.10
2018-10-06T09:31:42.557Z,17.10
2018-10-06T09:34:11.197Z,17.30
2018-10-06T09:36:39.876Z,17.30
2018-10-06T09:39:09.401Z,17.30
2018-10-06T09:41:38.069Z,17.30
2018-10-06T09:44:06.721Z,17.40
2018-10-06T09:46:35.434Z,17.40
2018-10-06T09:49:04.095Z,17.40
2018-10-06T09:51:32.729Z,17.50
2018-10-06T09:54:01.537Z,17.70
2018-10-06T09:56:30.169Z,17.90
2018-10-06T09:58:58.813Z,17.90
2018-10-06T10:01:32.740Z,18.10
2018-10-06T10:04:06.558Z,18.20
2018-10-06T10:06:35.202Z,18.40
2018-10-06T10:09:04.936Z,18.50
2018-10-06T10:11:33.630Z,18.60
2018-10-06T10:14:02.282Z,18.60
2018-10-06T10:16:30.881Z,18.70
2018-10-06T10:18:59.555Z,18.90
2018-10-06T10:21:28.165Z,19.00
2018-10-06T10:23:56.887Z,19.10
2018-10-06T10:26:25.533Z,19.20
2018-10-06T10:28:54.279Z,19.30
2018-10-06T10:31:29.302Z,19.40
2018-10-06T10:33:57.942Z,19.50
2018-10-06T10:36:26.915Z,19.60
2018-10-06T10:38:55.604Z,19.60
2018-10-06T10:41:24.242Z,19.80
2018-10-06T10:43:52.938Z,19.90
2018-10-06T10:46:21.577Z,20.10
2018-10-06T10:48:50.332Z,20.20
2018-10-06T10:51:18.953Z,20.30
2018-10-06T10:53:47.597Z,20.40
2018-10-06T10:56:16.257Z,20.50
2018-10-06T10:58:44.883Z,20.50
2018-10-06T11:01:13.712Z,20.60
2018-10-06T11:03:42.328Z,20.80
2018-10-06T11:06:10.950Z,20.90
2018-10-06T11:08:39.592Z,21.10
2018-10-06T11:11:08.278Z,21.30
2018-10-06T11:13:36.947Z,21.40
2018-10-06T11:16:05.572Z,21.50
2018-10-06T11:18:34.198Z,21.60
2018-10-06T11:21:02.858Z,21.80
2018-10-06T11:23:31.500Z,22.10
2018-10-06T11:26:00.314Z,22.20
2018-10-06T11:28:28.935Z,22.40
2018-10-06T11:30:57.585Z,22.40
2018-10-06T11:33:26.225Z,22.60
2018-10-06T11:35:55.363Z,22.70
2018-10-06T11:38:24.063Z,22.80
2018-10-06T11:40:52.696Z,22.90
2018-10-06T11:43:21.431Z,23.10
2018-10-06T11:45:50.049Z,23.30
2018-10-06T11:48:18.692Z,23.40
2018-10-06T11:50:47.333Z,23.50
2018-10-06T11:53:15.974Z,23.60
2018-10-06T11:55:44.624Z,23.70
2018-10-06T11:58:13.233Z,23.90
2018-10-06T12:00:41.982Z,24.10
2018-10-06T12:03:10.537Z,24.30
2018-10-06T12:05:39.246Z,24.30
2018-10-06T12:08:07.933Z,24.20
2018-10-06T12:10:36.565Z,24.20
2018-10-06T12:13:05.216Z,24.10
2018-10-06T12:15:33.937Z,23.90
2018-10-06T12:18:02.549Z,24.00
2018-10-06T12:20:31.287Z,24.00
2018-10-06T12:22:59.923Z,24.00
2018-10-06T12:25:28.550Z,24.00
2018-10-06T12:27:57.181Z,24.30
2018-10-06T12:30:25.790Z,24.50
2018-10-06T12:32:54.498Z,24.70
2018-10-06T12:35:23.258Z,24.80
2018-10-06T12:37:51.898Z,24.80
2018-10-06T12:40:20.555Z,25.00
2018-10-06T12:42:49.170Z,25.20
2018-10-06T12:45:18.209Z,25.30
2018-10-06T12:47:46.837Z,25.50
2018-10-06T12:50:15.453Z,25.80
2018-10-06T12:52:44.074Z,26.20
2018-10-06T12:55:12.687Z,26.10
2018-10-06T12:57:41.430Z,25.80
2018-10-06T13:00:10.167Z,25.70
2018-10-06T13:02:38.739Z,25.90
2018-10-06T13:05:07.676Z,26.20
2018-10-06T13:07:36.344Z,26.40
2018-10-06T13:10:05.713Z,26.60
2018-10-06T13:12:34.330Z,26.30
2018-10-06T13:15:02.947Z,25.80
2018-10-06T13:17:31.581Z,26.00
2018-10-06T13:20:00.210Z,26.30
2018-10-06T13:22:28.838Z,26.40
2018-10-06T13:24:57.470Z,26.50
2018-10-06T13:27:26.101Z,26.90
2018-10-06T13:29:54.734Z,27.00
2018-10-06T13:32:23.350Z,27.30
2018-10-06T13:34:52.006Z,27.20
2018-10-06T13:37:20.637Z,27.00
2018-10-06T13:39:49.270Z,26.70
2018-10-06T13:42:17.913Z,26.40
2018-10-06T13:44:46.887Z,26.20
2018-10-06T13:47:15.646Z,26.20
2018-10-06T13:49:44.270Z,26.30
2018-10-06T13:52:12.897Z,26.60
2018-10-06T13:54:41.723Z,26.60
2018-10-06T13:57:10.488Z,26.90
2018-10-06T13:59:39.233Z,27.30
2018-10-06T14:02:07.870Z,27.40
2018-10-06T14:04:36.502Z,27.40
2018-10-06T14:07:05.176Z,27.50
2018-10-06T14:09:33.790Z,27.70
2018-10-06T14:12:02.424Z,28.30
2018-10-06T14:14:31.026Z,28.60
2018-10-06T14:16:59.657Z,28.80
2018-10-06T14:19:28.402Z,29.30
2018-10-06T14:21:57.031Z,29.20
2018-10-06T14:24:25.666Z,29.20
2018-10-06T14:26:54.446Z,28.70
2018-10-06T14:29:23.061Z,28.00
2018-10-06T14:31:51.715Z,27.40
2018-10-06T14:34:20.378Z,26.90
2018-10-06T14:36:49.056Z,26.30
2018-10-06T14:39:17.714Z,26.10
2018-10-06T14:41:46.401Z,25.60
2018-10-06T14:44:15.091Z,25.60
2018-10-06T14:46:43.706Z,25.50
2018-10-06T14:49:12.409Z,25.30
2018-10-06T14:51:41.038Z,25.10
2018-10-06T14:54:09.716Z,24.80
2018-10-06T14:56:38.351Z,24.60
2018-10-06T14:59:07.978Z,24.50
2018-10-06T15:01:36.673Z,24.50
2018-10-06T15:04:05.386Z,24.40
2018-10-06T15:06:34.059Z,24.20
2018-10-06T15:09:03.798Z,24.00
2018-10-06T15:11:32.455Z,23.90
2018-10-06T15:14:01.985Z,23.80
2018-10-06T15:16:30.626Z,23.60
2018-10-06T15:18:59.512Z,23.50
2018-10-06T15:21:28.208Z,23.50
2018-10-06T15:23:56.803Z,23.30
2018-10-06T15:26:25.903Z,23.20
2018-10-06T15:29:01.515Z,23.00
2018-10-06T15:31:30.185Z,22.90
2018-10-06T15:33:58.938Z,22.80
2018-10-06T15:36:27.879Z,22.60
2018-10-06T15:38:56.576Z,22.40
2018-10-06T15:41:25.529Z,22.30
2018-10-06T15:43:54.170Z,22.10
2018-10-06T15:46:22.824Z,22.00
2018-10-06T15:48:53.470Z,21.90
2018-10-06T15:51:22.125Z,21.80
2018-10-06T15:53:50.829Z,21.70
2018-10-06T15:56:19.584Z,21.60
2018-10-06T15:58:48.217Z,21.50
2018-10-06T16:01:17.210Z,21.40
2018-10-06T16:03:45.837Z,21.30
2018-10-06T16:06:14.462Z,21.30
2018-10-06T16:08:43.157Z,21.20
2018-10-06T16:11:11.785Z,21.20
2018-10-06T16:13:40.749Z,21.30
2018-10-06T16:16:09.362Z,21.30
2018-10-06T16:18:38.002Z,21.30
2018-10-06T16:21:06.722Z,21.20
2018-10-06T16:23:35.336Z,21.00
2018-10-06T16:26:04.047Z,20.90
2018-10-06T16:28:32.694Z,20.80
2018-10-06T16:31:01.347Z,20.60
2018-10-06T16:33:30.092Z,20.50
2018-10-06T16:35:58.739Z,20.40
2018-10-06T16:38:27.446Z,20.30
2018-10-06T16:40:56.069Z,20.10
2018-10-06T16:43:24.665Z,20.00
2018-10-06T16:45:53.308Z,19.80
2018-10-06T16:48:21.937Z,19.70
2018-10-06T16:50:50.709Z,19.50
2018-10-06T16:53:19.386Z,19.40
2018-10-06T16:55:48.105Z,19.30
2018-10-06T16:58:16.733Z,19.20
2018-10-06T17:00:45.378Z,19.10
2018-10-06T17:03:14.072Z,19.00
2018-10-06T17:05:42.704Z,18.90
2018-10-06T17:08:11.612Z,18.90
2018-10-06T17:10:40.267Z,18.80
2018-10-06T17:13:08.941Z,18.70
2018-10-06T17:15:37.649Z,18.60
2018-10-06T17:18:06.317Z,18.50
2018-10-06T17:20:34.914Z,18.50
2018-10-06T17:23:04.630Z,18.40
2018-10-06T17:25:33.245Z,18.40
2018-10-06T17:28:02.907Z,18.40
2018-10-06T17:30:32.423Z,18.30
2018-10-06T17:33:01.260Z,18.20
2018-10-06T17:35:30.016Z,18.20
2018-10-06T17:37:59.892Z,18.10
2018-10-06T17:40:28.881Z,18.00
2018-10-06T17:42:57.522Z,17.90
2018-10-06T17:45:26.226Z,17.90
2018-10-06T17:47:54.891Z,17.80
2018-10-06T17:50:23.619Z,17.70
2018-10-06T17:52:52.231Z,17.60
2018-10-06T17:55:20.873Z,17.50
2018-10-06T17:57:49.530Z,17.40
2018-10-06T18:00:18.410Z,17.30
2018-10-06T18:02:49.986Z,17.20
2018-10-06T18:05:19.029Z,17.00
2018-10-06T18:07:47.703Z,16.90
2018-10-06T18:10:16.812Z,16.90
2018-10-06T18:12:45.467Z,16.70
2018-10-06T18:15:14.164Z,16.70
2018-10-06T18:17:42.861Z,16.60
2018-10-06T18:20:11.697Z,16.50
2018-10-06T18:22:40.294Z,16.40
2018-10-06T18:25:09.012Z,16.40
2018-10-06T18:27:37.729Z,16.30
2018-10-06T18:30:06.478Z,16.30
2018-10-06T18:32:38.717Z,16.30
2018-10-06T18:35:07.629Z,16.20
2018-10-06T18:37:36.304Z,16.20
2018-10-06T18:40:04.989Z,16.20
2018-10-06T18:42:33.722Z,16.10
2018-10-06T18:45:02.416Z,16.10
2018-10-06T18:47:31.177Z,16.10
2018-10-06T18:49:59.807Z,16.10
2018-10-06T18:52:28.496Z,16.00
2018-10-06T18:54:57.152Z,16.00
2018-10-06T18:57:25.834Z,16.00
2018-10-06T18:59:54.486Z,15.90
2018-10-06T19:02:23.193Z,15.90
2018-10-06T19:04:51.919Z,15.90
2018-10-06T19:07:20.624Z,15.80
2018-10-06T19:09:49.293Z,15.80
2018-10-06T19:12:17.979Z,15.80
2018-10-06T19:14:46.630Z,15.80
2018-10-06T19:17:15.297Z,15.70
2018-10-06T19:19:43.917Z,15.70
2018-10-06T19:22:12.605Z,15.60
2018-10-06T19:24:41.229Z,15.60
2018-10-06T19:27:09.868Z,15.50
2018-10-06T19:29:38.501Z,15.40
2018-10-06T19:32:07.191Z,15.40
2018-10-06T19:34:35.833Z,15.30
2018-10-06T19:37:04.526Z,15.30
2018-10-06T19:39:33.199Z,15.20
2018-10-06T19:42:01.910Z,15.20
2018-10-06T19:44:30.557Z,15.20
2018-10-06T19:46:59.223Z,15.20
2018-10-06T19:49:27.853Z,15.20
2018-10-06T19:51:56.512Z,15.30
2018-10-06T19:54:25.363Z,15.30
2018-10-06T19:56:54.034Z,15.20
2018-10-06T19:59:22.693Z,15.20
2018-10-06T20:01:51.400Z,15.20
2018-10-06T20:04:20.099Z,15.10
2018-10-06T20:06:48.782Z,15.10
2018-10-06T20:09:17.466Z,15.10
2018-10-06T20:11:46.121Z,15.10
2018-10-06T20:14:14.812Z,15.00
2018-10-06T20:16:43.489Z,15.00
2018-10-06T20:19:12.467Z,15.00
2018-10-06T20:21:41.170Z,15.10
2018-10-06T20:24:09.825Z,15.00
2018-10-06T20:26:38.597Z,15.00
2018-10-06T20:29:07.337Z,15.10
2018-10-06T20:31:36.034Z,15.10
2018-10-06T20:34:04.755Z,15.00
2018-10-06T20:36:33.569Z,15.00
2018-10-06T20:39:02.240Z,15.00
2018-10-06T20:41:30.886Z,15.00
2018-10-06T20:43:59.786Z,15.00
2018-10-06T20:46:28.640Z,15.00
2018-10-06T20:48:57.069Z,15.00
2018-10-06T20:51:25.737Z,14.90
2018-10-06T20:53:54.389Z,14.90
2018-10-06T20:56:23.124Z,14.80
2018-10-06T20:58:51.878Z,14.80
2018-10-06T21:01:20.505Z,14.70
2018-10-06T21:03:49.442Z,14.70
2018-10-06T21:06:18.114Z,14.70
2018-10-06T21:08:46.765Z,14.60
2018-10-06T21:11:15.452Z,14.60
2018-10-06T21:13:44.087Z,14.60
2018-10-06T21:16:12.790Z,14.50
2018-10-06T21:18:41.434Z,14.40
2018-10-06T21:21:10.167Z,14.40
2018-10-06T21:23:38.853Z,14.30
2018-10-06T21:26:07.762Z,14.20
2018-10-06T21:28:36.492Z,14.20
2018-10-06T21:31:05.104Z,14.10
2018-10-06T21:33:33.790Z,14.00
2018-10-06T21:36:02.443Z,14.00
2018-10-06T21:38:31.494Z,13.90
2018-10-06T21:41:00.224Z,13.80
2018-10-06T21:43:28.909Z,13.80
2018-10-06T21:45:57.589Z,13.70
2018-10-06T21:48:26.237Z,13.60
2018-10-06T21:50:55.078Z,13.60
2018-10-06T21:53:23.800Z,13.50
2018-10-06T21:55:52.417Z,13.50
2018-10-06T21:58:21.161Z,13.50
2018-10-06T22:01:21.877Z,13.40
2018-10-06T22:03:50.578Z,13.40
2018-10-06T22:06:19.294Z,13.30
2018-10-06T22:08:52.181Z,13.30
2018-10-06T22:11:20.986Z,13.20
2018-10-06T22:13:49.702Z,13.10
2018-10-06T22:16:18.376Z,13.10
2018-10-06T22:18:47.046Z,13.00
2018-10-06T22:21:15.726Z,13.00
2018-10-06T22:23:44.624Z,13.00
2018-10-06T22:26:13.296Z,13.00
2018-10-06T22:28:42.055Z,12.90
2018-10-06T22:31:10.817Z,12.90
2018-10-06T22:33:39.455Z,12.90
2018-10-06T22:36:08.315Z,12.90
2018-10-06T22:38:36.961Z,12.90
2018-10-06T22:41:05.726Z,12.80
2018-10-06T22:43:34.493Z,12.80
2018-10-06T22:46:03.133Z,12.70
2018-10-06T22:48:31.753Z,12.70
2018-10-06T22:51:00.421Z,12.70
2018-10-06T22:53:29.062Z,12.70
2018-10-06T22:55:57.878Z,12.70
2018-10-06T22:58:26.521Z,12.60
2018-10-06T23:00:55.164Z,12.60
2018-10-06T23:03:24.095Z,12.60
2018-10-06T23:05:52.824Z,12.60
2018-10-06T23:08:21.518Z,12.50
2018-10-06T23:10:50.136Z,12.50
2018-10-06T23:13:18.763Z,12.50
2018-10-06T23:15:47.416Z,12.40
2018-10-06T23:18:16.057Z,12.40
2018-10-06T23:20:44.749Z,12.40
2018-10-06T23:23:13.385Z,12.40
2018-10-06T23:25:42.074Z,12.40
2018-10-06T23:28:10.714Z,12.40
2018-10-06T23:30:39.458Z,12.40
2018-10-06T23:33:08.128Z,12.40
2018-10-06T23:35:36.843Z,12.40
2018-10-06T23:38:05.824Z,12.40
2018-10-06T23:40:34.528Z,12.30
2018-10-06T23:43:03.152Z,12.40
2018-10-06T23:45:31.813Z,12.30
2018-10-06T23:48:00.450Z,12.30
2018-10-06T23:50:29.149Z,12.30
2018-10-06T23:52:57.773Z,12.30
2018-10-06T23:55:26.454Z,12.30
2018-10-06T23:57:55.099Z,12.30
